sensor_id;sensor_type;location;lat;lon;timestamp;P1;durP1;ratioP1;P2;durP2;ratioP2
8594;SDS011;4335;48.860;9.198;2023-09-07T00:01:09;7.00;;;4.37;;
8594;SDS011;4335;48.860;9.198;2023-09-07T00:03:38;4.77;;;4.27;;
8594;SDS011;4335;48.860;9.198;2023-09-07T00:06:09;5.03;;;4.07;;
8594;SDS011;4335;48.860;9.198;2023-09-07T00:08:37;13.43;;;9.40;;
8594;SDS011;4335;48.860;9.198;2023-09-07T00:11:09;5.40;;;4.50;;
8594;SDS011;4335;48.860;9.198;2023-09-07T00:13:36;5.90;;;3.73;;
8594;SDS011;4335;48.860;9.198;2023-09-07T00:16:04;4.67;;;3.80;;
8594;SDS011;4335;48.860;9.198;2023-09-07T00:18:33;5.10;;;4.13;;
8594;SDS011;4335;48.860;9.198;2023-09-07T00:21:00;4.43;;;3.87;;
8594;SDS011;4335;48.860;9.198;2023-09-07T00:23:28;4.20;;;3.80;;
8594;SDS011;4335;48.860;9.198;2023-09-07T00:25:56;4.60;;;4.10;;
8594;SDS011;4335;48.860;9.198;2023-09-07T00:28:25;4.00;;;3.60;;
8594;SDS011;4335;48.860;9.198;2023-09-07T00:30:52;3.90;;;3.33;;
8594;SDS011;4335;48.860;9.198;2023-09-07T00:33:23;5.23;;;3.57;;
8594;SDS011;4335;48.860;9.198;2023-09-07T00:35:53;4.83;;;4.20;;
8594;SDS011;4335;48.860;9.198;2023-09-07T00:38:23;4.63;;;3.90;;
8594;SDS011;4335;48.860;9.198;2023-09-07T00:40:51;4.70;;;4.20;;
8594;SDS011;4335;48.860;9.198;2023-09-07T00:43:18;4.13;;;3.73;;
8594;SDS011;4335;48.860;9.198;2023-09-07T00:45:50;3.70;;;3.40;;
8594;SDS011;4335;48.860;9.198;2023-09-07T00:48:20;5.53;;;3.77;;
8594;SDS011;4335;48.860;9.198;2023-09-07T00:50:51;4.70;;;4.30;;
8594;SDS011;4335;48.860;9.198;2023-09-07T00:53:34;6.70;;;4.30;;
8594;SDS011;4335;48.860;9.198;2023-09-07T00:56:02;5.47;;;4.17;;
8594;SDS011;4335;48.860;9.198;2023-09-07T00:58:30;5.67;;;3.97;;
8594;SDS011;4335;48.860;9.198;2023-09-07T01:01:01;6.03;;;4.00;;
8594;SDS011;4335;48.860;9.198;2023-09-07T01:03:29;4.30;;;3.90;;
8594;SDS011;4335;48.860;9.198;2023-09-07T01:06:06;5.93;;;4.30;;
8594;SDS011;4335;48.860;9.198;2023-09-07T01:08:40;7.07;;;4.63;;
8594;SDS011;4335;48.860;9.198;2023-09-07T01:11:14;5.40;;;3.53;;
8594;SDS011;4335;48.860;9.198;2023-09-07T01:13:42;4.67;;;3.90;;
8594;SDS011;4335;48.860;9.198;2023-09-07T01:16:13;5.53;;;4.67;;
8594;SDS011;4335;48.860;9.198;2023-09-07T01:18:41;4.57;;;4.07;;
8594;SDS011;4335;48.860;9.198;2023-09-07T01:21:14;5.47;;;3.80;;
8594;SDS011;4335;48.860;9.198;2023-09-07T01:23:45;6.13;;;4.57;;
8594;SDS011;4335;48.860;9.198;2023-09-07T01:26:17;5.90;;;4.50;;
8594;SDS011;4335;48.860;9.198;2023-09-07T01:28:47;9.17;;;6.33;;
8594;SDS011;4335;48.860;9.198;2023-09-07T01:31:18;9.33;;;5.47;;
8594;SDS011;4335;48.860;9.198;2023-09-07T01:33:45;4.63;;;4.23;;
8594;SDS011;4335;48.860;9.198;2023-09-07T01:36:19;6.50;;;4.37;;
8594;SDS011;4335;48.860;9.198;2023-09-07T01:38:50;5.33;;;4.17;;
8594;SDS011;4335;48.860;9.198;2023-09-07T01:41:18;5.13;;;3.93;;
8594;SDS011;4335;48.860;9.198;2023-09-07T01:43:48;5.60;;;4.47;;
8594;SDS011;4335;48.860;9.198;2023-09-07T01:46:18;4.63;;;4.13;;
8594;SDS011;4335;48.860;9.198;2023-09-07T01:48:49;7.33;;;4.53;;
8594;SDS011;4335;48.860;9.198;2023-09-07T01:51:16;4.80;;;4.30;;
8594;SDS011;4335;48.860;9.198;2023-09-07T01:53:51;5.63;;;4.80;;
8594;SDS011;4335;48.860;9.198;2023-09-07T01:56:18;5.23;;;4.03;;
8594;SDS011;4335;48.860;9.198;2023-09-07T01:58:52;4.37;;;3.97;;
8594;SDS011;4335;48.860;9.198;2023-09-07T02:01:27;5.70;;;4.00;;
8594;SDS011;4335;48.860;9.198;2023-09-07T02:03:56;4.33;;;3.93;;
8594;SDS011;4335;48.860;9.198;2023-09-07T02:06:24;5.10;;;4.60;;
8594;SDS011;4335;48.860;9.198;2023-09-07T02:08:55;6.63;;;4.83;;
8594;SDS011;4335;48.860;9.198;2023-09-07T02:11:23;5.40;;;4.33;;
8594;SDS011;4335;48.860;9.198;2023-09-07T02:13:50;5.70;;;4.57;;
8594;SDS011;4335;48.860;9.198;2023-09-07T02:16:18;7.70;;;5.17;;
8594;SDS011;4335;48.860;9.198;2023-09-07T02:18:48;6.00;;;5.30;;
8594;SDS011;4335;48.860;9.198;2023-09-07T02:21:22;7.43;;;4.70;;
8594;SDS011;4335;48.860;9.198;2023-09-07T02:23:52;5.63;;;5.13;;
8594;SDS011;4335;48.860;9.198;2023-09-07T02:26:27;7.17;;;5.30;;
8594;SDS011;4335;48.860;9.198;2023-09-07T02:28:54;6.23;;;4.30;;
8594;SDS011;4335;48.860;9.198;2023-09-07T02:31:31;4.97;;;4.47;;
8594;SDS011;4335;48.860;9.198;2023-09-07T02:33:59;4.73;;;3.97;;
8594;SDS011;4335;48.860;9.198;2023-09-07T02:36:26;4.40;;;4.03;;
8594;SDS011;4335;48.860;9.198;2023-09-07T02:38:54;4.97;;;4.00;;
8594;SDS011;4335;48.860;9.198;2023-09-07T02:41:35;5.20;;;4.20;;
8594;SDS011;4335;48.860;9.198;2023-09-07T02:44:05;5.10;;;4.30;;
8594;SDS011;4335;48.860;9.198;2023-09-07T02:46:35;5.23;;;4.17;;
8594;SDS011;4335;48.860;9.198;2023-09-07T02:49:03;5.77;;;4.77;;
8594;SDS011;4335;48.860;9.198;2023-09-07T02:51:33;4.47;;;3.97;;
8594;SDS011;4335;48.860;9.198;2023-09-07T02:54:01;4.90;;;4.43;;
8594;SDS011;4335;48.860;9.198;2023-09-07T02:56:32;5.17;;;4.67;;
8594;SDS011;4335;48.860;9.198;2023-09-07T02:59:00;6.90;;;4.33;;
8594;SDS011;4335;48.860;9.198;2023-09-07T03:01:31;5.00;;;3.97;;
8594;SDS011;4335;48.860;9.198;2023-09-07T03:04:05;4.93;;;4.43;;
8594;SDS011;4335;48.860;9.198;2023-09-07T03:06:33;5.63;;;4.43;;
8594;SDS011;4335;48.860;9.198;2023-09-07T03:09:01;5.03;;;4.53;;
8594;SDS011;4335;48.860;9.198;2023-09-07T03:11:32;6.10;;;4.20;;
8594;SDS011;4335;48.860;9.198;2023-09-07T03:14:01;5.10;;;4.40;;
8594;SDS011;4335;48.860;9.198;2023-09-07T03:16:28;4.97;;;4.47;;
8594;SDS011;4335;48.860;9.198;2023-09-07T03:18:57;4.87;;;3.93;;
8594;SDS011;4335;48.860;9.198;2023-09-07T03:21:24;4.60;;;4.13;;
8594;SDS011;4335;48.860;9.198;2023-09-07T03:23:57;5.03;;;4.53;;
8594;SDS011;4335;48.860;9.198;2023-09-07T03:26:27;6.43;;;4.67;;
8594;SDS011;4335;48.860;9.198;2023-09-07T03:28:58;5.70;;;4.47;;
8594;SDS011;4335;48.860;9.198;2023-09-07T03:31:27;8.60;;;4.90;;
8594;SDS011;4335;48.860;9.198;2023-09-07T03:33:54;6.67;;;4.67;;
8594;SDS011;4335;48.860;9.198;2023-09-07T03:36:27;8.60;;;4.57;;
8594;SDS011;4335;48.860;9.198;2023-09-07T03:39:01;6.03;;;4.33;;
8594;SDS011;4335;48.860;9.198;2023-09-07T03:41:28;5.83;;;5.10;;
8594;SDS011;4335;48.860;9.198;2023-09-07T03:43:56;5.53;;;4.93;;
8594;SDS011;4335;48.860;9.198;2023-09-07T03:46:38;6.00;;;5.13;;
8594;SDS011;4335;48.860;9.198;2023-09-07T03:49:06;8.63;;;4.97;;
8594;SDS011;4335;48.860;9.198;2023-09-07T03:51:39;8.70;;;5.83;;
8594;SDS011;4335;48.860;9.198;2023-09-07T03:54:13;8.90;;;5.63;;
8594;SDS011;4335;48.860;9.198;2023-09-07T03:56:43;7.17;;;5.77;;
8594;SDS011;4335;48.860;9.198;2023-09-07T03:59:11;8.60;;;6.03;;
8594;SDS011;4335;48.860;9.198;2023-09-07T04:01:40;9.13;;;5.90;;
8594;SDS011;4335;48.860;9.198;2023-09-07T04:04:07;6.47;;;5.60;;
8594;SDS011;4335;48.860;9.198;2023-09-07T04:06:46;7.43;;;6.30;;
8594;SDS011;4335;48.860;9.198;2023-09-07T04:09:13;9.73;;;6.30;;
8594;SDS011;4335;48.860;9.198;2023-09-07T04:11:41;7.37;;;5.87;;
8594;SDS011;4335;48.860;9.198;2023-09-07T04:14:11;7.63;;;6.10;;
8594;SDS011;4335;48.860;9.198;2023-09-07T04:16:40;9.77;;;6.87;;
8594;SDS011;4335;48.860;9.198;2023-09-07T04:19:07;8.67;;;6.47;;
8594;SDS011;4335;48.860;9.198;2023-09-07T04:21:35;9.80;;;6.67;;
8594;SDS011;4335;48.860;9.198;2023-09-07T04:24:06;10.33;;;7.10;;
8594;SDS011;4335;48.860;9.198;2023-09-07T04:26:34;8.23;;;6.60;;
8594;SDS011;4335;48.860;9.198;2023-09-07T04:29:04;8.70;;;6.63;;
8594;SDS011;4335;48.860;9.198;2023-09-07T04:31:33;8.97;;;7.00;;
8594;SDS011;4335;48.860;9.198;2023-09-07T04:34:08;8.67;;;6.23;;
8594;SDS011;4335;48.860;9.198;2023-09-07T04:36:39;10.00;;;7.43;;
8594;SDS011;4335;48.860;9.198;2023-09-07T04:39:06;13.83;;;10.07;;
8594;SDS011;4335;48.860;9.198;2023-09-07T04:41:33;13.23;;;9.47;;
8594;SDS011;4335;48.860;9.198;2023-09-07T04:44:03;11.97;;;8.40;;
8594;SDS011;4335;48.860;9.198;2023-09-07T04:46:34;10.43;;;7.53;;
8594;SDS011;4335;48.860;9.198;2023-09-07T04:49:01;7.90;;;6.73;;
8594;SDS011;4335;48.860;9.198;2023-09-07T04:51:30;9.50;;;6.90;;
8594;SDS011;4335;48.860;9.198;2023-09-07T04:54:03;8.63;;;6.03;;
8594;SDS011;4335;48.860;9.198;2023-09-07T04:56:31;7.47;;;6.47;;
8594;SDS011;4335;48.860;9.198;2023-09-07T04:58:58;8.43;;;6.93;;
8594;SDS011;4335;48.860;9.198;2023-09-07T05:01:35;8.33;;;6.67;;
8594;SDS011;4335;48.860;9.198;2023-09-07T05:04:05;8.87;;;6.90;;
8594;SDS011;4335;48.860;9.198;2023-09-07T05:06:39;8.13;;;6.37;;
8594;SDS011;4335;48.860;9.198;2023-09-07T05:09:07;8.50;;;5.97;;
8594;SDS011;4335;48.860;9.198;2023-09-07T05:11:37;6.97;;;5.60;;
8594;SDS011;4335;48.860;9.198;2023-09-07T05:14:13;6.67;;;6.00;;
8594;SDS011;4335;48.860;9.198;2023-09-07T05:16:42;5.97;;;5.40;;
8594;SDS011;4335;48.860;9.198;2023-09-07T05:19:12;12.20;;;9.07;;
8594;SDS011;4335;48.860;9.198;2023-09-07T05:21:44;8.37;;;6.13;;
8594;SDS011;4335;48.860;9.198;2023-09-07T05:24:12;8.93;;;5.77;;
8594;SDS011;4335;48.860;9.198;2023-09-07T05:26:41;5.60;;;4.83;;
8594;SDS011;4335;48.860;9.198;2023-09-07T05:29:11;5.30;;;4.67;;
8594;SDS011;4335;48.860;9.198;2023-09-07T05:31:47;5.93;;;5.33;;
8594;SDS011;4335;48.860;9.198;2023-09-07T05:34:14;6.37;;;5.00;;
8594;SDS011;4335;48.860;9.198;2023-09-07T05:36:42;5.57;;;4.97;;
8594;SDS011;4335;48.860;9.198;2023-09-07T05:39:14;6.27;;;5.67;;
8594;SDS011;4335;48.860;9.198;2023-09-07T05:41:42;6.03;;;5.40;;
8594;SDS011;4335;48.860;9.198;2023-09-07T05:44:15;6.70;;;4.77;;
8594;SDS011;4335;48.860;9.198;2023-09-07T05:46:43;5.90;;;5.30;;
8594;SDS011;4335;48.860;9.198;2023-09-07T05:49:15;6.47;;;4.97;;
8594;SDS011;4335;48.860;9.198;2023-09-07T05:51:43;8.03;;;6.60;;
8594;SDS011;4335;48.860;9.198;2023-09-07T05:54:12;6.70;;;5.33;;
8594;SDS011;4335;48.860;9.198;2023-09-07T05:56:39;5.97;;;5.07;;
8594;SDS011;4335;48.860;9.198;2023-09-07T05:59:09;6.33;;;5.17;;
8594;SDS011;4335;48.860;9.198;2023-09-07T06:01:43;6.60;;;4.67;;
8594;SDS011;4335;48.860;9.198;2023-09-07T06:04:13;6.03;;;4.97;;
8594;SDS011;4335;48.860;9.198;2023-09-07T06:06:40;6.20;;;5.60;;
8594;SDS011;4335;48.860;9.198;2023-09-07T06:09:08;7.77;;;6.17;;
8594;SDS011;4335;48.860;9.198;2023-09-07T06:11:37;6.27;;;5.40;;
8594;SDS011;4335;48.860;9.198;2023-09-07T06:14:04;6.23;;;5.63;;
8594;SDS011;4335;48.860;9.198;2023-09-07T06:16:34;6.40;;;4.73;;
8594;SDS011;4335;48.860;9.198;2023-09-07T06:19:07;7.57;;;5.17;;
8594;SDS011;4335;48.860;9.198;2023-09-07T06:21:35;5.37;;;3.87;;
8594;SDS011;4335;48.860;9.198;2023-09-07T06:24:03;5.47;;;4.20;;
8594;SDS011;4335;48.860;9.198;2023-09-07T06:26:31;4.37;;;3.97;;
8594;SDS011;4335;48.860;9.198;2023-09-07T06:29:00;6.10;;;4.00;;
8594;SDS011;4335;48.860;9.198;2023-09-07T06:31:28;5.27;;;4.13;;
8594;SDS011;4335;48.860;9.198;2023-09-07T06:33:55;4.47;;;4.07;;
8594;SDS011;4335;48.860;9.198;2023-09-07T06:36:25;5.00;;;4.13;;
8594;SDS011;4335;48.860;9.198;2023-09-07T06:38:53;4.30;;;3.90;;
8594;SDS011;4335;48.860;9.198;2023-09-07T06:41:20;4.32;;;3.55;;
8594;SDS011;4335;48.860;9.198;2023-09-07T06:43:50;4.63;;;4.10;;
8594;SDS011;4335;48.860;9.198;2023-09-07T06:46:22;5.28;;;4.63;;
8594;SDS011;4335;48.860;9.198;2023-09-07T06:48:49;6.07;;;3.75;;
8594;SDS011;4335;48.860;9.198;2023-09-07T06:51:16;4.32;;;3.92;;
8594;SDS011;4335;48.860;9.198;2023-09-07T06:53:55;4.80;;;4.05;;
8594;SDS011;4335;48.860;9.198;2023-09-07T06:56:23;5.30;;;3.63;;
8594;SDS011;4335;48.860;9.198;2023-09-07T06:58:51;4.18;;;3.85;;
8594;SDS011;4335;48.860;9.198;2023-09-07T07:01:20;4.38;;;3.97;;
8594;SDS011;4335;48.860;9.198;2023-09-07T07:03:48;4.10;;;3.80;;
8594;SDS011;4335;48.860;9.198;2023-09-07T07:06:15;6.38;;;3.78;;
8594;SDS011;4335;48.860;9.198;2023-09-07T07:08:45;4.72;;;4.00;;
8594;SDS011;4335;48.860;9.198;2023-09-07T07:11:13;4.30;;;3.90;;
8594;SDS011;4335;48.860;9.198;2023-09-07T07:13:41;4.20;;;3.90;;
8594;SDS011;4335;48.860;9.198;2023-09-07T07:16:08;5.00;;;3.45;;
8594;SDS011;4335;48.860;9.198;2023-09-07T07:18:37;4.33;;;3.97;;
8594;SDS011;4335;48.860;9.198;2023-09-07T07:21:05;5.63;;;4.63;;
8594;SDS011;4335;48.860;9.198;2023-09-07T07:23:35;5.77;;;4.63;;
8594;SDS011;4335;48.860;9.198;2023-09-07T07:26:03;4.33;;;3.83;;
8594;SDS011;4335;48.860;9.198;2023-09-07T07:28:30;4.50;;;4.10;;
8594;SDS011;4335;48.860;9.198;2023-09-07T07:30:58;4.33;;;3.93;;
8594;SDS011;4335;48.860;9.198;2023-09-07T07:33:25;9.93;;;4.97;;
8594;SDS011;4335;48.860;9.198;2023-09-07T07:35:57;5.10;;;4.63;;
8594;SDS011;4335;48.860;9.198;2023-09-07T07:38:24;5.67;;;5.03;;
8594;SDS011;4335;48.860;9.198;2023-09-07T07:40:52;4.90;;;4.40;;
8594;SDS011;4335;48.860;9.198;2023-09-07T07:43:22;5.47;;;4.40;;
8594;SDS011;4335;48.860;9.198;2023-09-07T07:45:51;4.77;;;4.37;;
8594;SDS011;4335;48.860;9.198;2023-09-07T07:48:18;6.80;;;4.63;;
8594;SDS011;4335;48.860;9.198;2023-09-07T07:50:53;4.97;;;4.43;;
8594;SDS011;4335;48.860;9.198;2023-09-07T07:53:22;7.70;;;5.10;;
8594;SDS011;4335;48.860;9.198;2023-09-07T07:55:50;6.87;;;4.63;;
8594;SDS011;4335;48.860;9.198;2023-09-07T07:58:19;5.23;;;4.47;;
8594;SDS011;4335;48.860;9.198;2023-09-07T08:00:46;5.27;;;4.77;;
8594;SDS011;4335;48.860;9.198;2023-09-07T08:03:14;6.57;;;5.97;;
8594;SDS011;4335;48.860;9.198;2023-09-07T08:05:42;5.73;;;4.90;;
8594;SDS011;4335;48.860;9.198;2023-09-07T08:08:09;5.20;;;4.70;;
8594;SDS011;4335;48.860;9.198;2023-09-07T08:10:41;5.40;;;4.90;;
8594;SDS011;4335;48.860;9.198;2023-09-07T08:13:13;5.10;;;4.70;;
8594;SDS011;4335;48.860;9.198;2023-09-07T08:15:40;6.97;;;5.57;;
8594;SDS011;4335;48.860;9.198;2023-09-07T08:18:14;7.63;;;4.87;;
8594;SDS011;4335;48.860;9.198;2023-09-07T08:20:44;5.50;;;5.00;;
8594;SDS011;4335;48.860;9.198;2023-09-07T08:23:12;5.27;;;4.77;;
8594;SDS011;4335;48.860;9.198;2023-09-07T08:25:43;5.80;;;4.30;;
8594;SDS011;4335;48.860;9.198;2023-09-07T08:28:14;6.00;;;4.47;;
8594;SDS011;4335;48.860;9.198;2023-09-07T08:30:48;6.07;;;4.80;;
8594;SDS011;4335;48.860;9.198;2023-09-07T08:33:18;5.87;;;5.03;;
8594;SDS011;4335;48.860;9.198;2023-09-07T08:35:54;5.40;;;4.90;;
8594;SDS011;4335;48.860;9.198;2023-09-07T08:38:22;5.30;;;4.83;;
8594;SDS011;4335;48.860;9.198;2023-09-07T08:40:54;6.60;;;4.70;;
8594;SDS011;4335;48.860;9.198;2023-09-07T08:43:28;6.47;;;5.60;;
8594;SDS011;4335;48.860;9.198;2023-09-07T08:46:02;6.10;;;4.87;;
8594;SDS011;4335;48.860;9.198;2023-09-07T08:48:37;8.30;;;5.30;;
8594;SDS011;4335;48.860;9.198;2023-09-07T08:51:09;5.20;;;4.80;;
8594;SDS011;4335;48.860;9.198;2023-09-07T08:53:38;5.60;;;5.03;;
8594;SDS011;4335;48.860;9.198;2023-09-07T08:56:07;5.53;;;5.03;;
8594;SDS011;4335;48.860;9.198;2023-09-07T08:58:39;5.67;;;4.80;;
8594;SDS011;4335;48.860;9.198;2023-09-07T09:01:12;5.43;;;4.90;;
8594;SDS011;4335;48.860;9.198;2023-09-07T09:03:40;11.27;;;6.17;;
8594;SDS011;4335;48.860;9.198;2023-09-07T09:06:09;5.90;;;5.30;;
8594;SDS011;4335;48.860;9.198;2023-09-07T09:08:43;8.07;;;4.97;;
8594;SDS011;4335;48.860;9.198;2023-09-07T09:11:18;6.77;;;5.07;;
8594;SDS011;4335;48.860;9.198;2023-09-07T09:13:52;5.72;;;4.50;;
8594;SDS011;4335;48.860;9.198;2023-09-07T09:16:23;5.50;;;4.45;;
8594;SDS011;4335;48.860;9.198;2023-09-07T09:18:59;6.00;;;5.07;;
8594;SDS011;4335;48.860;9.198;2023-09-07T09:21:28;5.55;;;4.20;;
8594;SDS011;4335;48.860;9.198;2023-09-07T09:23:56;4.70;;;4.30;;
8594;SDS011;4335;48.860;9.198;2023-09-07T09:26:26;5.35;;;3.90;;
8594;SDS011;4335;48.860;9.198;2023-09-07T09:28:55;5.07;;;4.28;;
8594;SDS011;4335;48.860;9.198;2023-09-07T09:31:23;4.07;;;3.78;;
8594;SDS011;4335;48.860;9.198;2023-09-07T09:33:53;4.95;;;3.92;;
8594;SDS011;4335;48.860;9.198;2023-09-07T09:36:22;4.85;;;4.43;;
8594;SDS011;4335;48.860;9.198;2023-09-07T09:38:50;4.85;;;4.47;;
8594;SDS011;4335;48.860;9.198;2023-09-07T09:41:32;12.80;;;7.13;;
8594;SDS011;4335;48.860;9.198;2023-09-07T09:44:02;4.30;;;3.75;;
8594;SDS011;4335;48.860;9.198;2023-09-07T09:46:37;4.00;;;3.70;;
8594;SDS011;4335;48.860;9.198;2023-09-07T09:49:08;3.90;;;3.22;;
8594;SDS011;4335;48.860;9.198;2023-09-07T09:51:39;3.90;;;3.58;;
8594;SDS011;4335;48.860;9.198;2023-09-07T09:54:08;5.55;;;4.03;;
8594;SDS011;4335;48.860;9.198;2023-09-07T09:56:52;3.83;;;3.25;;
8594;SDS011;4335;48.860;9.198;2023-09-07T09:59:20;5.47;;;3.60;;
8594;SDS011;4335;48.860;9.198;2023-09-07T10:01:52;4.70;;;3.75;;
8594;SDS011;4335;48.860;9.198;2023-09-07T10:04:25;4.20;;;3.75;;
8594;SDS011;4335;48.860;9.198;2023-09-07T10:06:55;4.00;;;3.67;;
8594;SDS011;4335;48.860;9.198;2023-09-07T10:09:23;4.90;;;3.55;;
8594;SDS011;4335;48.860;9.198;2023-09-07T10:11:52;4.60;;;4.20;;
8594;SDS011;4335;48.860;9.198;2023-09-07T10:14:20;3.58;;;3.28;;
8594;SDS011;4335;48.860;9.198;2023-09-07T10:16:48;3.58;;;3.28;;
8594;SDS011;4335;48.860;9.198;2023-09-07T10:19:18;3.83;;;3.50;;
8594;SDS011;4335;48.860;9.198;2023-09-07T10:21:48;3.90;;;3.50;;
8594;SDS011;4335;48.860;9.198;2023-09-07T10:24:23;4.15;;;3.45;;
8594;SDS011;4335;48.860;9.198;2023-09-07T10:27:05;3.88;;;3.58;;
8594;SDS011;4335;48.860;9.198;2023-09-07T10:32:17;4.47;;;4.18;;
8594;SDS011;4335;48.860;9.198;2023-09-07T10:34:54;4.70;;;3.72;;
8594;SDS011;4335;48.860;9.198;2023-09-07T10:37:27;4.00;;;3.60;;
8594;SDS011;4335;48.860;9.198;2023-09-07T10:39:55;5.05;;;3.53;;
8594;SDS011;4335;48.860;9.198;2023-09-07T10:42:24;4.90;;;3.55;;
8594;SDS011;4335;48.860;9.198;2023-09-07T10:44:52;3.95;;;3.58;;
8594;SDS011;4335;48.860;9.198;2023-09-07T10:47:20;4.70;;;4.25;;
8594;SDS011;4335;48.860;9.198;2023-09-07T10:49:47;4.43;;;3.75;;
8594;SDS011;4335;48.860;9.198;2023-09-07T10:52:15;4.22;;;3.85;;
8594;SDS011;4335;48.860;9.198;2023-09-07T10:54:42;5.22;;;3.70;;
8594;SDS011;4335;48.860;9.198;2023-09-07T10:57:22;4.88;;;4.18;;
8594;SDS011;4335;48.860;9.198;2023-09-07T10:59:53;4.57;;;4.20;;
8594;SDS011;4335;48.860;9.198;2023-09-07T11:02:23;4.43;;;4.03;;
8594;SDS011;4335;48.860;9.198;2023-09-07T11:04:50;5.82;;;4.32;;
8594;SDS011;4335;48.860;9.198;2023-09-07T11:07:24;4.80;;;4.40;;
8594;SDS011;4335;48.860;9.198;2023-09-07T11:09:52;6.38;;;4.40;;
8594;SDS011;4335;48.860;9.198;2023-09-07T11:12:22;5.13;;;4.65;;
8594;SDS011;4335;48.860;9.198;2023-09-07T11:14:53;4.78;;;4.38;;
8594;SDS011;4335;48.860;9.198;2023-09-07T11:17:27;4.25;;;3.95;;
8594;SDS011;4335;48.860;9.198;2023-09-07T11:19:57;4.95;;;4.32;;
8594;SDS011;4335;48.860;9.198;2023-09-07T11:22:33;6.70;;;4.28;;
8594;SDS011;4335;48.860;9.198;2023-09-07T11:25:05;5.50;;;4.10;;
8594;SDS011;4335;48.860;9.198;2023-09-07T11:27:33;5.55;;;4.25;;
8594;SDS011;4335;48.860;9.198;2023-09-07T11:30:19;6.13;;;5.22;;
8594;SDS011;4335;48.860;9.198;2023-09-07T11:32:46;7.05;;;4.78;;
8594;SDS011;4335;48.860;9.198;2023-09-07T11:35:19;5.75;;;4.47;;
8594;SDS011;4335;48.860;9.198;2023-09-07T11:37:51;6.55;;;5.88;;
8594;SDS011;4335;48.860;9.198;2023-09-07T11:40:19;4.40;;;4.03;;
8594;SDS011;4335;48.860;9.198;2023-09-07T11:42:46;4.90;;;4.50;;
8594;SDS011;4335;48.860;9.198;2023-09-07T11:45:16;5.82;;;4.45;;
8594;SDS011;4335;48.860;9.198;2023-09-07T11:47:45;4.80;;;4.30;;
8594;SDS011;4335;48.860;9.198;2023-09-07T11:50:13;4.80;;;4.13;;
8594;SDS011;4335;48.860;9.198;2023-09-07T11:52:42;5.90;;;4.07;;
8594;SDS011;4335;48.860;9.198;2023-09-07T11:55:16;4.50;;;4.20;;
8594;SDS011;4335;48.860;9.198;2023-09-07T11:57:53;4.70;;;4.30;;
8594;SDS011;4335;48.860;9.198;2023-09-07T12:00:22;4.67;;;4.27;;
8594;SDS011;4335;48.860;9.198;2023-09-07T12:02:49;4.60;;;4.20;;
8594;SDS011;4335;48.860;9.198;2023-09-07T12:05:17;4.83;;;4.13;;
8594;SDS011;4335;48.860;9.198;2023-09-07T12:07:51;4.60;;;4.20;;
8594;SDS011;4335;48.860;9.198;2023-09-07T12:10:18;6.30;;;4.07;;
8594;SDS011;4335;48.860;9.198;2023-09-07T12:12:45;6.37;;;4.40;;
8594;SDS011;4335;48.860;9.198;2023-09-07T12:15:13;4.80;;;4.30;;
8594;SDS011;4335;48.860;9.198;2023-09-07T12:20:26;5.50;;;4.40;;
8594;SDS011;4335;48.860;9.198;2023-09-07T12:22:54;4.93;;;4.53;;
8594;SDS011;4335;48.860;9.198;2023-09-07T12:25:24;6.60;;;4.23;;
8594;SDS011;4335;48.860;9.198;2023-09-07T12:27:54;4.43;;;4.03;;
8594;SDS011;4335;48.860;9.198;2023-09-07T12:30:21;4.50;;;4.10;;
8594;SDS011;4335;48.860;9.198;2023-09-07T12:32:49;6.10;;;4.13;;
8594;SDS011;4335;48.860;9.198;2023-09-07T12:35:24;4.23;;;3.83;;
8594;SDS011;4335;48.860;9.198;2023-09-07T12:37:51;4.37;;;3.97;;
8594;SDS011;4335;48.860;9.198;2023-09-07T12:40:22;4.73;;;4.33;;
8594;SDS011;4335;48.860;9.198;2023-09-07T12:42:49;4.43;;;4.03;;
8594;SDS011;4335;48.860;9.198;2023-09-07T12:45:17;4.70;;;4.20;;
8594;SDS011;4335;48.860;9.198;2023-09-07T12:47:47;4.27;;;3.87;;
8594;SDS011;4335;48.860;9.198;2023-09-07T12:50:14;5.10;;;4.20;;
8594;SDS011;4335;48.860;9.198;2023-09-07T12:52:46;4.30;;;3.95;;
8594;SDS011;4335;48.860;9.198;2023-09-07T12:55:16;4.82;;;4.38;;
8594;SDS011;4335;48.860;9.198;2023-09-07T12:57:44;5.43;;;3.92;;
8594;SDS011;4335;48.860;9.198;2023-09-07T13:00:15;4.10;;;3.80;;
8594;SDS011;4335;48.860;9.198;2023-09-07T13:02:43;4.85;;;4.13;;
8594;SDS011;4335;48.860;9.198;2023-09-07T13:05:11;4.63;;;3.80;;
8594;SDS011;4335;48.860;9.198;2023-09-07T13:07:52;4.33;;;3.97;;
8594;SDS011;4335;48.860;9.198;2023-09-07T13:10:19;5.17;;;4.40;;
8594;SDS011;4335;48.860;9.198;2023-09-07T13:12:47;5.18;;;4.32;;
8594;SDS011;4335;48.860;9.198;2023-09-07T13:15:17;4.82;;;4.32;;
8594;SDS011;4335;48.860;9.198;2023-09-07T13:17:44;5.25;;;4.22;;
8594;SDS011;4335;48.860;9.198;2023-09-07T13:20:14;4.53;;;4.13;;
8594;SDS011;4335;48.860;9.198;2023-09-07T13:22:45;8.02;;;4.07;;
8594;SDS011;4335;48.860;9.198;2023-09-07T13:25:14;3.85;;;3.55;;
8594;SDS011;4335;48.860;9.198;2023-09-07T13:27:41;8.15;;;4.28;;
8594;SDS011;4335;48.860;9.198;2023-09-07T13:30:12;4.40;;;4.00;;
8594;SDS011;4335;48.860;9.198;2023-09-07T13:32:39;4.65;;;4.25;;
8594;SDS011;4335;48.860;9.198;2023-09-07T13:35:07;5.03;;;3.72;;
8594;SDS011;4335;48.860;9.198;2023-09-07T13:37:34;4.45;;;4.10;;
8594;SDS011;4335;48.860;9.198;2023-09-07T13:40:05;5.25;;;4.43;;
8594;SDS011;4335;48.860;9.198;2023-09-07T13:42:38;4.70;;;4.22;;
8594;SDS011;4335;48.860;9.198;2023-09-07T13:45:08;4.15;;;3.40;;
8594;SDS011;4335;48.860;9.198;2023-09-07T13:47:39;4.03;;;3.67;;
8594;SDS011;4335;48.860;9.198;2023-09-07T13:50:07;4.20;;;3.80;;
8594;SDS011;4335;48.860;9.198;2023-09-07T13:52:34;7.13;;;5.50;;
8594;SDS011;4335;48.860;9.198;2023-09-07T13:55:02;4.88;;;4.38;;
8594;SDS011;4335;48.860;9.198;2023-09-07T13:57:29;3.92;;;3.63;;
8594;SDS011;4335;48.860;9.198;2023-09-07T13:59:58;4.43;;;4.03;;
8594;SDS011;4335;48.860;9.198;2023-09-07T14:02:26;4.97;;;3.92;;
8594;SDS011;4335;48.860;9.198;2023-09-07T14:04:53;3.80;;;3.40;;
8594;SDS011;4335;48.860;9.198;2023-09-07T14:07:20;4.45;;;4.05;;
8594;SDS011;4335;48.860;9.198;2023-09-07T14:09:50;4.43;;;3.70;;
8594;SDS011;4335;48.860;9.198;2023-09-07T14:12:24;4.10;;;3.80;;
8594;SDS011;4335;48.860;9.198;2023-09-07T14:14:59;4.55;;;4.13;;
8594;SDS011;4335;48.860;9.198;2023-09-07T14:17:29;3.83;;;3.40;;
8594;SDS011;4335;48.860;9.198;2023-09-07T14:20:03;4.13;;;3.72;;
8594;SDS011;4335;48.860;9.198;2023-09-07T14:22:31;4.80;;;3.85;;
8594;SDS011;4335;48.860;9.198;2023-09-07T14:24:58;4.28;;;3.80;;
8594;SDS011;4335;48.860;9.198;2023-09-07T14:27:25;4.65;;;4.03;;
8594;SDS011;4335;48.860;9.198;2023-09-07T14:29:53;5.57;;;4.15;;
8594;SDS011;4335;48.860;9.198;2023-09-07T14:32:22;4.05;;;3.75;;
8594;SDS011;4335;48.860;9.198;2023-09-07T14:34:51;4.75;;;4.25;;
8594;SDS011;4335;48.860;9.198;2023-09-07T14:37:19;3.70;;;3.40;;
8594;SDS011;4335;48.860;9.198;2023-09-07T14:39:52;4.13;;;3.72;;
8594;SDS011;4335;48.860;9.198;2023-09-07T14:42:24;4.53;;;4.13;;
8594;SDS011;4335;48.860;9.198;2023-09-07T14:44:54;6.30;;;4.63;;
8594;SDS011;4335;48.860;9.198;2023-09-07T14:47:24;4.15;;;3.75;;
8594;SDS011;4335;48.860;9.198;2023-09-07T14:49:51;4.10;;;3.67;;
8594;SDS011;4335;48.860;9.198;2023-09-07T14:52:24;4.38;;;3.50;;
8594;SDS011;4335;48.860;9.198;2023-09-07T14:54:54;4.20;;;3.85;;
8594;SDS011;4335;48.860;9.198;2023-09-07T14:57:24;4.78;;;3.72;;
8594;SDS011;4335;48.860;9.198;2023-09-07T15:00:14;4.07;;;3.45;;
8594;SDS011;4335;48.860;9.198;2023-09-07T15:02:46;4.20;;;3.80;;
8594;SDS011;4335;48.860;9.198;2023-09-07T15:05:14;5.03;;;3.60;;
8594;SDS011;4335;48.860;9.198;2023-09-07T15:07:47;3.70;;;3.40;;
8594;SDS011;4335;48.860;9.198;2023-09-07T15:10:18;4.40;;;4.00;;
8594;SDS011;4335;48.860;9.198;2023-09-07T15:13:03;4.32;;;3.55;;
8594;SDS011;4335;48.860;9.198;2023-09-07T15:15:32;3.92;;;3.63;;
8594;SDS011;4335;48.860;9.198;2023-09-07T15:18:04;4.10;;;3.70;;
8594;SDS011;4335;48.860;9.198;2023-09-07T15:20:40;4.20;;;3.80;;
8594;SDS011;4335;48.860;9.198;2023-09-07T15:23:07;4.18;;;3.88;;
8594;SDS011;4335;48.860;9.198;2023-09-07T15:25:38;3.60;;;3.30;;
8594;SDS011;4335;48.860;9.198;2023-09-07T15:28:05;5.20;;;3.67;;
8594;SDS011;4335;48.860;9.198;2023-09-07T15:30:34;4.97;;;3.90;;
8594;SDS011;4335;48.860;9.198;2023-09-07T15:33:18;4.43;;;4.03;;
8594;SDS011;4335;48.860;9.198;2023-09-07T15:35:53;4.43;;;3.85;;
8594;SDS011;4335;48.860;9.198;2023-09-07T15:38:23;5.78;;;3.72;;